Berne, Indiana
Current Conditions -  °F | °C
As of 8:54 AM on Monday 20 Oct 2014 (Local Time) from KFWA Reporting Station
Broken Clouds Broken Clouds  
Wind Chill: 50°   Ceiling: 6000
Heat Index: 50°   Visibility: 10mi
Dew Point: 44°   Wind: 12mph
Humidity: 80%   Direction: 200°SSW
Pressure: 29.88"   Gusts: NA
Location:  40.66°N, 84.95°W
Report Text: KFWA 201254Z 20010KT 10SM BKN060 10/07 A2988 RMK AO2 SLP121 T01000067
Loading
Personal Weather Stations






























Interactive Weather Map
Tropical Storm Tracking
New forecast layout! Learn more

10-Day Weather Forecast

Advertisements
Track Severe Weather on mobile